sensor_id;sensor_type;location;lat;lon;timestamp;temperature;humidity
24678;DHT22;12800;53.094;8.778;2024-03-08T00:00:51;4.70;77.40
24678;DHT22;12800;53.094;8.778;2024-03-08T00:03:17;4.70;77.40
24678;DHT22;12800;53.094;8.778;2024-03-08T00:05:42;4.70;77.30
24678;DHT22;12800;53.094;8.778;2024-03-08T00:08:08;4.60;77.20
24678;DHT22;12800;53.094;8.778;2024-03-08T00:10:36;4.60;77.40
24678;DHT22;12800;53.094;8.778;2024-03-08T00:13:04;4.60;77.40
24678;DHT22;12800;53.094;8.778;2024-03-08T00:15:30;4.60;77.40
24678;DHT22;12800;53.094;8.778;2024-03-08T00:17:57;4.60;77.30
24678;DHT22;12800;53.094;8.778;2024-03-08T00:20:23;4.60;77.40
24678;DHT22;12800;53.094;8.778;2024-03-08T00:22:49;4.60;77.40
24678;DHT22;12800;53.094;8.778;2024-03-08T00:25:14;4.60;77.30
24678;DHT22;12800;53.094;8.778;2024-03-08T00:27:40;4.60;77.30
24678;DHT22;12800;53.094;8.778;2024-03-08T00:30:07;4.60;77.30
24678;DHT22;12800;53.094;8.778;2024-03-08T00:32:33;4.60;77.30
24678;DHT22;12800;53.094;8.778;2024-03-08T00:34:59;4.50;77.00
24678;DHT22;12800;53.094;8.778;2024-03-08T00:37:24;4.50;77.10
24678;DHT22;12800;53.094;8.778;2024-03-08T00:39:51;4.50;77.00
24678;DHT22;12800;53.094;8.778;2024-03-08T00:42:17;4.50;77.10
24678;DHT22;12800;53.094;8.778;2024-03-08T00:44:43;4.50;77.10
24678;DHT22;12800;53.094;8.778;2024-03-08T00:47:09;4.50;77.10
24678;DHT22;12800;53.094;8.778;2024-03-08T00:49:35;4.40;77.10
24678;DHT22;12800;53.094;8.778;2024-03-08T00:52:02;4.40;77.20
24678;DHT22;12800;53.094;8.778;2024-03-08T00:54:28;4.40;77.20
24678;DHT22;12800;53.094;8.778;2024-03-08T00:56:53;4.40;77.20
24678;DHT22;12800;53.094;8.778;2024-03-08T00:59:19;4.40;77.20
24678;DHT22;12800;53.094;8.778;2024-03-08T01:01:44;4.40;77.20
24678;DHT22;12800;53.094;8.778;2024-03-08T01:04:10;4.40;77.10
24678;DHT22;12800;53.094;8.778;2024-03-08T01:06:37;4.40;77.10
24678;DHT22;12800;53.094;8.778;2024-03-08T01:09:02;4.40;77.00
24678;DHT22;12800;53.094;8.778;2024-03-08T01:11:28;4.30;77.10
24678;DHT22;12800;53.094;8.778;2024-03-08T01:13:54;4.30;77.10
24678;DHT22;12800;53.094;8.778;2024-03-08T01:16:20;4.30;77.00
24678;DHT22;12800;53.094;8.778;2024-03-08T01:18:47;4.30;77.10
24678;DHT22;12800;53.094;8.778;2024-03-08T01:21:12;4.20;77.10
24678;DHT22;12800;53.094;8.778;2024-03-08T01:23:38;4.20;77.30
24678;DHT22;12800;53.094;8.778;2024-03-08T01:26:04;4.20;77.20
24678;DHT22;12800;53.094;8.778;2024-03-08T01:28:30;4.20;77.10
24678;DHT22;12800;53.094;8.778;2024-03-08T01:30:56;4.20;77.20
24678;DHT22;12800;53.094;8.778;2024-03-08T01:33:26;4.10;77.10
24678;DHT22;12800;53.094;8.778;2024-03-08T01:35:54;4.20;77.20
24678;DHT22;12800;53.094;8.778;2024-03-08T01:38:20;4.10;77.20
24678;DHT22;12800;53.094;8.778;2024-03-08T01:40:52;4.10;77.20
24678;DHT22;12800;53.094;8.778;2024-03-08T01:43:27;4.10;77.30
24678;DHT22;12800;53.094;8.778;2024-03-08T01:46:00;4.10;77.30
24678;DHT22;12800;53.094;8.778;2024-03-08T01:48:26;4.10;78.10
24678;DHT22;12800;53.094;8.778;2024-03-08T01:50:53;4.10;77.30
24678;DHT22;12800;53.094;8.778;2024-03-08T01:53:20;4.10;77.30
24678;DHT22;12800;53.094;8.778;2024-03-08T01:55:47;4.00;77.20
24678;DHT22;12800;53.094;8.778;2024-03-08T01:58:14;4.00;77.20
24678;DHT22;12800;53.094;8.778;2024-03-08T02:00:44;4.00;77.30
24678;DHT22;12800;53.094;8.778;2024-03-08T02:03:10;4.00;77.30
24678;DHT22;12800;53.094;8.778;2024-03-08T02:05:36;4.00;77.50
24678;DHT22;12800;53.094;8.778;2024-03-08T02:08:04;4.00;77.50
24678;DHT22;12800;53.094;8.778;2024-03-08T02:10:33;4.00;77.40
24678;DHT22;12800;53.094;8.778;2024-03-08T02:12:59;4.00;77.40
24678;DHT22;12800;53.094;8.778;2024-03-08T02:15:24;3.90;77.50
24678;DHT22;12800;53.094;8.778;2024-03-08T02:17:51;3.90;78.10
24678;DHT22;12800;53.094;8.778;2024-03-08T02:20:18;3.90;77.70
24678;DHT22;12800;53.094;8.778;2024-03-08T02:22:45;3.90;77.60
24678;DHT22;12800;53.094;8.778;2024-03-08T02:25:11;3.90;77.60
24678;DHT22;12800;53.094;8.778;2024-03-08T02:27:37;3.90;77.80
24678;DHT22;12800;53.094;8.778;2024-03-08T02:30:03;3.90;77.90
24678;DHT22;12800;53.094;8.778;2024-03-08T02:32:30;3.90;78.00
24678;DHT22;12800;53.094;8.778;2024-03-08T02:34:58;3.90;78.00
24678;DHT22;12800;53.094;8.778;2024-03-08T02:37:25;3.90;77.90
24678;DHT22;12800;53.094;8.778;2024-03-08T02:39:51;3.90;77.90
24678;DHT22;12800;53.094;8.778;2024-03-08T02:42:17;3.80;78.80
24678;DHT22;12800;53.094;8.778;2024-03-08T02:44:43;3.80;78.00
24678;DHT22;12800;53.094;8.778;2024-03-08T02:47:11;3.80;78.00
24678;DHT22;12800;53.094;8.778;2024-03-08T02:49:37;3.80;78.10
24678;DHT22;12800;53.094;8.778;2024-03-08T02:52:04;3.80;78.20
24678;DHT22;12800;53.094;8.778;2024-03-08T02:54:30;3.80;78.20
24678;DHT22;12800;53.094;8.778;2024-03-08T02:56:56;3.80;78.20
24678;DHT22;12800;53.094;8.778;2024-03-08T02:59:21;3.80;78.40
24678;DHT22;12800;53.094;8.778;2024-03-08T03:01:47;3.80;78.50
24678;DHT22;12800;53.094;8.778;2024-03-08T03:04:13;3.80;78.40
24678;DHT22;12800;53.094;8.778;2024-03-08T03:06:38;3.70;78.40
24678;DHT22;12800;53.094;8.778;2024-03-08T03:09:04;3.70;78.50
24678;DHT22;12800;53.094;8.778;2024-03-08T03:11:31;3.70;78.50
24678;DHT22;12800;53.094;8.778;2024-03-08T03:13:57;3.70;78.60
24678;DHT22;12800;53.094;8.778;2024-03-08T03:16:23;3.70;78.50
24678;DHT22;12800;53.094;8.778;2024-03-08T03:18:49;3.70;78.50
24678;DHT22;12800;53.094;8.778;2024-03-08T03:21:15;3.70;78.70
24678;DHT22;12800;53.094;8.778;2024-03-08T03:23:41;3.70;78.80
24678;DHT22;12800;53.094;8.778;2024-03-08T03:26:10;3.70;78.80
24678;DHT22;12800;53.094;8.778;2024-03-08T03:28:39;3.70;78.80
24678;DHT22;12800;53.094;8.778;2024-03-08T03:31:08;3.60;78.80
24678;DHT22;12800;53.094;8.778;2024-03-08T03:33:39;3.60;78.90
24678;DHT22;12800;53.094;8.778;2024-03-08T03:36:05;3.60;78.90
24678;DHT22;12800;53.094;8.778;2024-03-08T03:38:31;3.60;79.00
24678;DHT22;12800;53.094;8.778;2024-03-08T03:40:57;3.60;79.10
24678;DHT22;12800;53.094;8.778;2024-03-08T03:43:29;3.60;79.20
24678;DHT22;12800;53.094;8.778;2024-03-08T03:45:55;3.60;79.20
24678;DHT22;12800;53.094;8.778;2024-03-08T03:48:21;3.60;79.20
24678;DHT22;12800;53.094;8.778;2024-03-08T03:50:46;3.60;79.20
24678;DHT22;12800;53.094;8.778;2024-03-08T03:53:12;3.60;79.40
24678;DHT22;12800;53.094;8.778;2024-03-08T03:55:38;3.60;79.40
24678;DHT22;12800;53.094;8.778;2024-03-08T03:58:04;3.60;79.40
24678;DHT22;12800;53.094;8.778;2024-03-08T04:00:30;3.60;79.40
24678;DHT22;12800;53.094;8.778;2024-03-08T04:02:55;3.50;79.30
24678;DHT22;12800;53.094;8.778;2024-03-08T04:05:24;3.50;79.30
24678;DHT22;12800;53.094;8.778;2024-03-08T04:07:50;3.50;79.60
24678;DHT22;12800;53.094;8.778;2024-03-08T04:10:16;3.50;79.70
24678;DHT22;12800;53.094;8.778;2024-03-08T04:12:41;3.50;79.70
24678;DHT22;12800;53.094;8.778;2024-03-08T04:15:07;3.50;79.80
24678;DHT22;12800;53.094;8.778;2024-03-08T04:17:34;3.50;79.80
24678;DHT22;12800;53.094;8.778;2024-03-08T04:20:06;3.50;79.90
24678;DHT22;12800;53.094;8.778;2024-03-08T04:22:39;3.50;79.90
24678;DHT22;12800;53.094;8.778;2024-03-08T04:25:06;3.40;79.70
24678;DHT22;12800;53.094;8.778;2024-03-08T04:27:32;3.40;79.80
24678;DHT22;12800;53.094;8.778;2024-03-08T04:29:58;3.40;79.80
24678;DHT22;12800;53.094;8.778;2024-03-08T04:32:24;3.40;79.90
24678;DHT22;12800;53.094;8.778;2024-03-08T04:34:50;3.40;80.70
24678;DHT22;12800;53.094;8.778;2024-03-08T04:37:16;3.40;79.90
24678;DHT22;12800;53.094;8.778;2024-03-08T04:39:47;3.30;80.00
24678;DHT22;12800;53.094;8.778;2024-03-08T04:42:13;3.30;80.90
24678;DHT22;12800;53.094;8.778;2024-03-08T04:44:39;3.30;80.10
24678;DHT22;12800;53.094;8.778;2024-03-08T04:47:05;3.30;80.20
24678;DHT22;12800;53.094;8.778;2024-03-08T04:49:34;3.30;80.10
24678;DHT22;12800;53.094;8.778;2024-03-08T04:52:01;3.30;80.20
24678;DHT22;12800;53.094;8.778;2024-03-08T04:54:28;3.30;80.40
24678;DHT22;12800;53.094;8.778;2024-03-08T04:56:53;3.30;80.40
24678;DHT22;12800;53.094;8.778;2024-03-08T04:59:19;3.30;80.40
24678;DHT22;12800;53.094;8.778;2024-03-08T05:01:45;3.20;81.10
24678;DHT22;12800;53.094;8.778;2024-03-08T05:04:10;3.20;80.50
24678;DHT22;12800;53.094;8.778;2024-03-08T05:06:36;3.20;80.50
24678;DHT22;12800;53.094;8.778;2024-03-08T05:09:02;3.20;80.60
24678;DHT22;12800;53.094;8.778;2024-03-08T05:11:47;3.20;80.60
24678;DHT22;12800;53.094;8.778;2024-03-08T05:14:14;3.20;80.70
24678;DHT22;12800;53.094;8.778;2024-03-08T05:16:43;3.10;80.70
24678;DHT22;12800;53.094;8.778;2024-03-08T05:19:09;3.20;80.90
24678;DHT22;12800;53.094;8.778;2024-03-08T05:21:34;3.20;80.80
24678;DHT22;12800;53.094;8.778;2024-03-08T05:24:00;3.20;80.80
24678;DHT22;12800;53.094;8.778;2024-03-08T05:26:26;3.20;80.90
24678;DHT22;12800;53.094;8.778;2024-03-08T05:28:51;3.20;80.90
24678;DHT22;12800;53.094;8.778;2024-03-08T05:31:23;3.10;80.90
24678;DHT22;12800;53.094;8.778;2024-03-08T05:33:49;3.10;80.70
24678;DHT22;12800;53.094;8.778;2024-03-08T05:36:15;3.10;80.90
24678;DHT22;12800;53.094;8.778;2024-03-08T05:38:43;3.10;80.80
24678;DHT22;12800;53.094;8.778;2024-03-08T05:41:09;3.10;80.90
24678;DHT22;12800;53.094;8.778;2024-03-08T05:43:35;3.10;80.90
24678;DHT22;12800;53.094;8.778;2024-03-08T05:46:00;3.10;81.00
24678;DHT22;12800;53.094;8.778;2024-03-08T05:48:26;3.10;80.90
24678;DHT22;12800;53.094;8.778;2024-03-08T05:50:51;3.10;81.00
24678;DHT22;12800;53.094;8.778;2024-03-08T05:53:17;3.10;81.10
24678;DHT22;12800;53.094;8.778;2024-03-08T05:55:42;3.10;81.00
24678;DHT22;12800;53.094;8.778;2024-03-08T05:58:09;3.10;81.10
24678;DHT22;12800;53.094;8.778;2024-03-08T06:00:36;3.10;81.00
24678;DHT22;12800;53.094;8.778;2024-03-08T06:03:02;3.10;81.00
24678;DHT22;12800;53.094;8.778;2024-03-08T06:05:28;3.10;81.00
24678;DHT22;12800;53.094;8.778;2024-03-08T06:07:54;3.10;81.00
24678;DHT22;12800;53.094;8.778;2024-03-08T06:10:19;3.10;81.00
24678;DHT22;12800;53.094;8.778;2024-03-08T06:12:45;3.10;81.00
24678;DHT22;12800;53.094;8.778;2024-03-08T06:15:11;3.10;80.90
24678;DHT22;12800;53.094;8.778;2024-03-08T06:17:40;3.10;81.00
24678;DHT22;12800;53.094;8.778;2024-03-08T06:20:07;3.10;80.90
24678;DHT22;12800;53.094;8.778;2024-03-08T06:22:41;3.10;80.70
24678;DHT22;12800;53.094;8.778;2024-03-08T06:25:09;3.10;80.70
24678;DHT22;12800;53.094;8.778;2024-03-08T06:27:39;3.10;80.90
24678;DHT22;12800;53.094;8.778;2024-03-08T06:30:06;3.00;80.90
24678;DHT22;12800;53.094;8.778;2024-03-08T06:32:32;3.00;81.00
24678;DHT22;12800;53.094;8.778;2024-03-08T06:35:01;3.10;81.00
24678;DHT22;12800;53.094;8.778;2024-03-08T06:37:27;3.10;81.00
24678;DHT22;12800;53.094;8.778;2024-03-08T06:39:53;3.10;80.90
24678;DHT22;12800;53.094;8.778;2024-03-08T06:42:20;3.10;80.90
24678;DHT22;12800;53.094;8.778;2024-03-08T06:44:46;3.10;80.90
24678;DHT22;12800;53.094;8.778;2024-03-08T06:47:18;3.10;81.00
24678;DHT22;12800;53.094;8.778;2024-03-08T06:49:43;3.10;81.00
24678;DHT22;12800;53.094;8.778;2024-03-08T06:52:10;3.10;81.00
24678;DHT22;12800;53.094;8.778;2024-03-08T06:54:36;3.20;80.90
24678;DHT22;12800;53.094;8.778;2024-03-08T06:57:05;3.20;80.80
24678;DHT22;12800;53.094;8.778;2024-03-08T06:59:34;3.20;80.70
24678;DHT22;12800;53.094;8.778;2024-03-08T07:02:01;3.20;80.60
24678;DHT22;12800;53.094;8.778;2024-03-08T07:04:27;3.20;80.40
24678;DHT22;12800;53.094;8.778;2024-03-08T07:06:55;3.20;80.60
24678;DHT22;12800;53.094;8.778;2024-03-08T07:09:23;3.20;80.60
24678;DHT22;12800;53.094;8.778;2024-03-08T07:11:50;3.20;80.50
24678;DHT22;12800;53.094;8.778;2024-03-08T07:14:23;3.20;80.50
24678;DHT22;12800;53.094;8.778;2024-03-08T07:16:49;3.30;80.60
24678;DHT22;12800;53.094;8.778;2024-03-08T07:19:16;3.30;80.50
24678;DHT22;12800;53.094;8.778;2024-03-08T07:21:43;3.40;80.30
24678;DHT22;12800;53.094;8.778;2024-03-08T07:24:09;3.40;80.30
24678;DHT22;12800;53.094;8.778;2024-03-08T07:26:53;3.50;80.10
24678;DHT22;12800;53.094;8.778;2024-03-08T07:29:19;3.50;79.90
24678;DHT22;12800;53.094;8.778;2024-03-08T07:31:45;3.50;79.80
24678;DHT22;12800;53.094;8.778;2024-03-08T07:34:16;3.50;79.90
24678;DHT22;12800;53.094;8.778;2024-03-08T07:36:42;3.60;79.90
24678;DHT22;12800;53.094;8.778;2024-03-08T07:39:08;3.70;79.70
24678;DHT22;12800;53.094;8.778;2024-03-08T07:41:37;3.70;79.60
24678;DHT22;12800;53.094;8.778;2024-03-08T07:44:06;3.80;79.50
24678;DHT22;12800;53.094;8.778;2024-03-08T07:46:31;3.80;79.30
24678;DHT22;12800;53.094;8.778;2024-03-08T07:48:59;3.80;79.00
24678;DHT22;12800;53.094;8.778;2024-03-08T07:51:25;3.90;79.00
24678;DHT22;12800;53.094;8.778;2024-03-08T07:53:51;3.90;78.90
24678;DHT22;12800;53.094;8.778;2024-03-08T07:56:16;3.90;78.70
24678;DHT22;12800;53.094;8.778;2024-03-08T07:58:44;4.00;78.60
24678;DHT22;12800;53.094;8.778;2024-03-08T08:01:19;4.00;78.40
24678;DHT22;12800;53.094;8.778;2024-03-08T08:03:45;4.00;78.30
24678;DHT22;12800;53.094;8.778;2024-03-08T08:06:11;4.00;78.40
24678;DHT22;12800;53.094;8.778;2024-03-08T08:08:44;4.10;78.20
24678;DHT22;12800;53.094;8.778;2024-03-08T08:11:10;4.10;78.10
24678;DHT22;12800;53.094;8.778;2024-03-08T08:13:37;4.20;78.00
24678;DHT22;12800;53.094;8.778;2024-03-08T08:16:05;4.20;77.90
24678;DHT22;12800;53.094;8.778;2024-03-08T08:18:31;4.20;77.90
24678;DHT22;12800;53.094;8.778;2024-03-08T08:20:58;4.30;77.80
24678;DHT22;12800;53.094;8.778;2024-03-08T08:23:26;4.40;77.80
24678;DHT22;12800;53.094;8.778;2024-03-08T08:25:51;4.50;77.50
24678;DHT22;12800;53.094;8.778;2024-03-08T08:28:17;4.50;77.10
24678;DHT22;12800;53.094;8.778;2024-03-08T08:30:44;4.50;77.00
24678;DHT22;12800;53.094;8.778;2024-03-08T08:33:10;4.50;76.90
24678;DHT22;12800;53.094;8.778;2024-03-08T08:35:37;4.60;76.80
24678;DHT22;12800;53.094;8.778;2024-03-08T08:38:06;4.60;76.60
24678;DHT22;12800;53.094;8.778;2024-03-08T08:40:33;4.60;76.40
24678;DHT22;12800;53.094;8.778;2024-03-08T08:42:59;4.70;76.40
24678;DHT22;12800;53.094;8.778;2024-03-08T08:45:25;4.70;76.20
24678;DHT22;12800;53.094;8.778;2024-03-08T08:47:52;4.80;76.10
24678;DHT22;12800;53.094;8.778;2024-03-08T08:50:18;4.80;75.90
24678;DHT22;12800;53.094;8.778;2024-03-08T08:52:49;4.90;75.90
24678;DHT22;12800;53.094;8.778;2024-03-08T08:55:15;4.90;75.60
24678;DHT22;12800;53.094;8.778;2024-03-08T08:57:43;5.00;75.70
24678;DHT22;12800;53.094;8.778;2024-03-08T09:00:10;5.00;75.40
24678;DHT22;12800;53.094;8.778;2024-03-08T09:02:41;5.10;75.40
24678;DHT22;12800;53.094;8.778;2024-03-08T09:05:07;5.10;75.00
24678;DHT22;12800;53.094;8.778;2024-03-08T09:07:36;5.20;75.00
24678;DHT22;12800;53.094;8.778;2024-03-08T09:10:03;5.30;75.00
24678;DHT22;12800;53.094;8.778;2024-03-08T09:12:29;5.30;74.70
24678;DHT22;12800;53.094;8.778;2024-03-08T09:14:58;5.30;74.50
24678;DHT22;12800;53.094;8.778;2024-03-08T09:17:25;5.30;74.50
24678;DHT22;12800;53.094;8.778;2024-03-08T09:19:51;5.40;74.60
24678;DHT22;12800;53.094;8.778;2024-03-08T09:22:16;5.50;74.70
24678;DHT22;12800;53.094;8.778;2024-03-08T09:24:43;5.60;74.80
24678;DHT22;12800;53.094;8.778;2024-03-08T09:27:09;5.60;74.50
24678;DHT22;12800;53.094;8.778;2024-03-08T09:29:37;5.70;74.10
24678;DHT22;12800;53.094;8.778;2024-03-08T09:32:03;5.80;73.80
24678;DHT22;12800;53.094;8.778;2024-03-08T09:34:30;5.80;73.80
24678;DHT22;12800;53.094;8.778;2024-03-08T09:36:55;5.90;73.70
24678;DHT22;12800;53.094;8.778;2024-03-08T09:39:21;6.00;73.50
24678;DHT22;12800;53.094;8.778;2024-03-08T09:41:47;6.00;73.20
24678;DHT22;12800;53.094;8.778;2024-03-08T09:44:16;6.10;73.00
24678;DHT22;12800;53.094;8.778;2024-03-08T09:46:42;6.20;72.80
24678;DHT22;12800;53.094;8.778;2024-03-08T09:49:08;6.20;72.80
24678;DHT22;12800;53.094;8.778;2024-03-08T09:51:37;6.30;72.80
24678;DHT22;12800;53.094;8.778;2024-03-08T09:54:05;6.30;72.50
24678;DHT22;12800;53.094;8.778;2024-03-08T09:56:35;6.40;72.10
24678;DHT22;12800;53.094;8.778;2024-03-08T09:59:02;6.50;72.50
24678;DHT22;12800;53.094;8.778;2024-03-08T10:01:54;6.50;71.40
24678;DHT22;12800;53.094;8.778;2024-03-08T10:04:22;6.60;71.10
24678;DHT22;12800;53.094;8.778;2024-03-08T10:06:48;6.70;70.70
24678;DHT22;12800;53.094;8.778;2024-03-08T10:09:14;6.70;70.60
24678;DHT22;12800;53.094;8.778;2024-03-08T10:11:41;6.70;70.30
24678;DHT22;12800;53.094;8.778;2024-03-08T10:14:09;6.80;70.30
24678;DHT22;12800;53.094;8.778;2024-03-08T10:16:36;6.90;70.00
24678;DHT22;12800;53.094;8.778;2024-03-08T10:19:03;6.90;69.80
24678;DHT22;12800;53.094;8.778;2024-03-08T10:21:28;6.90;69.60
24678;DHT22;12800;53.094;8.778;2024-03-08T10:23:56;7.00;69.50
24678;DHT22;12800;53.094;8.778;2024-03-08T10:26:21;7.10;69.30
24678;DHT22;12800;53.094;8.778;2024-03-08T10:28:48;7.10;69.40
24678;DHT22;12800;53.094;8.778;2024-03-08T10:31:18;7.20;69.30
24678;DHT22;12800;53.094;8.778;2024-03-08T10:33:45;7.20;69.00
24678;DHT22;12800;53.094;8.778;2024-03-08T10:36:12;7.30;69.00
24678;DHT22;12800;53.094;8.778;2024-03-08T10:38:40;7.30;68.80
24678;DHT22;12800;53.094;8.778;2024-03-08T10:41:07;7.40;68.80
24678;DHT22;12800;53.094;8.778;2024-03-08T10:44:06;7.50;68.50
24678;DHT22;12800;53.094;8.778;2024-03-08T10:47:01;7.50;68.40
24678;DHT22;12800;53.094;8.778;2024-03-08T10:49:46;7.60;68.10
24678;DHT22;12800;53.094;8.778;2024-03-08T10:52:16;7.60;67.80
24678;DHT22;12800;53.094;8.778;2024-03-08T10:54:45;7.70;67.70
24678;DHT22;12800;53.094;8.778;2024-03-08T10:57:13;7.70;67.60
24678;DHT22;12800;53.094;8.778;2024-03-08T10:59:40;7.70;67.20
24678;DHT22;12800;53.094;8.778;2024-03-08T11:02:11;7.70;67.30
24678;DHT22;12800;53.094;8.778;2024-03-08T11:04:37;7.80;67.10
24678;DHT22;12800;53.094;8.778;2024-03-08T11:07:03;7.90;67.20
24678;DHT22;12800;53.094;8.778;2024-03-08T11:09:36;7.90;67.20
24678;DHT22;12800;53.094;8.778;2024-03-08T11:12:37;8.00;67.80
24678;DHT22;12800;53.094;8.778;2024-03-08T11:15:09;8.10;67.10
24678;DHT22;12800;53.094;8.778;2024-03-08T11:20:17;8.20;66.70
24678;DHT22;12800;53.094;8.778;2024-03-08T11:23:00;8.30;66.10
24678;DHT22;12800;53.094;8.778;2024-03-08T11:25:40;8.30;65.60
24678;DHT22;12800;53.094;8.778;2024-03-08T11:28:12;8.40;65.50
24678;DHT22;12800;53.094;8.778;2024-03-08T11:30:43;8.50;65.50
24678;DHT22;12800;53.094;8.778;2024-03-08T11:33:12;8.50;65.30
24678;DHT22;12800;53.094;8.778;2024-03-08T11:35:39;8.60;65.10
24678;DHT22;12800;53.094;8.778;2024-03-08T11:38:07;8.60;65.00
24678;DHT22;12800;53.094;8.778;2024-03-08T11:40:33;8.60;64.90
24678;DHT22;12800;53.094;8.778;2024-03-08T11:43:00;8.60;64.60
24678;DHT22;12800;53.094;8.778;2024-03-08T11:45:28;8.70;64.50
24678;DHT22;12800;53.094;8.778;2024-03-08T11:47:55;8.60;64.50
24678;DHT22;12800;53.094;8.778;2024-03-08T11:50:21;8.70;64.40
24678;DHT22;12800;53.094;8.778;2024-03-08T11:52:50;8.70;64.30
24678;DHT22;12800;53.094;8.778;2024-03-08T11:55:16;8.70;64.10
24678;DHT22;12800;53.094;8.778;2024-03-08T11:57:44;8.80;63.80
24678;DHT22;12800;53.094;8.778;2024-03-08T12:00:18;8.80;63.50
24678;DHT22;12800;53.094;8.778;2024-03-08T12:03:09;8.80;63.30
24678;DHT22;12800;53.094;8.778;2024-03-08T12:05:38;8.80;63.30
24678;DHT22;12800;53.094;8.778;2024-03-08T12:08:04;8.80;63.20
24678;DHT22;12800;53.094;8.778;2024-03-08T12:10:38;8.90;63.00
24678;DHT22;12800;53.094;8.778;2024-03-08T12:13:04;8.90;63.00
24678;DHT22;12800;53.094;8.778;2024-03-08T12:15:32;8.90;62.70
24678;DHT22;12800;53.094;8.778;2024-03-08T12:17:59;9.00;62.60
24678;DHT22;12800;53.094;8.778;2024-03-08T12:20:27;9.10;62.70
24678;DHT22;12800;53.094;8.778;2024-03-08T12:22:56;9.10;62.60
24678;DHT22;12800;53.094;8.778;2024-03-08T12:25:33;9.20;62.50
24678;DHT22;12800;53.094;8.778;2024-03-08T12:28:08;9.30;61.80
24678;DHT22;12800;53.094;8.778;2024-03-08T12:30:51;9.30;61.60
24678;DHT22;12800;53.094;8.778;2024-03-08T12:33:22;9.30;61.40
24678;DHT22;12800;53.094;8.778;2024-03-08T12:35:55;9.30;61.30
24678;DHT22;12800;53.094;8.778;2024-03-08T12:38:21;9.40;60.80
24678;DHT22;12800;53.094;8.778;2024-03-08T12:40:50;9.40;60.40
24678;DHT22;12800;53.094;8.778;2024-03-08T12:43:16;9.40;60.40
24678;DHT22;12800;53.094;8.778;2024-03-08T12:45:43;9.50;60.50
24678;DHT22;12800;53.094;8.778;2024-03-08T12:48:13;9.50;60.20
24678;DHT22;12800;53.094;8.778;2024-03-08T12:50:42;9.60;60.60
24678;DHT22;12800;53.094;8.778;2024-03-08T12:53:13;9.70;60.40
24678;DHT22;12800;53.094;8.778;2024-03-08T12:55:39;9.70;60.30
24678;DHT22;12800;53.094;8.778;2024-03-08T12:58:06;9.80;59.70
24678;DHT22;12800;53.094;8.778;2024-03-08T13:00:35;9.80;59.60
24678;DHT22;12800;53.094;8.778;2024-03-08T13:03:02;9.80;59.40
24678;DHT22;12800;53.094;8.778;2024-03-08T13:05:28;9.80;59.30
24678;DHT22;12800;53.094;8.778;2024-03-08T13:07:55;9.90;59.40
24678;DHT22;12800;53.094;8.778;2024-03-08T13:10:22;9.90;59.30
24678;DHT22;12800;53.094;8.778;2024-03-08T13:12:48;10.00;59.30
24678;DHT22;12800;53.094;8.778;2024-03-08T13:15:14;10.00;59.00
24678;DHT22;12800;53.094;8.778;2024-03-08T13:17:48;10.00;59.00
24678;DHT22;12800;53.094;8.778;2024-03-08T13:20:14;10.10;59.10
24678;DHT22;12800;53.094;8.778;2024-03-08T13:22:45;10.10;59.30
24678;DHT22;12800;53.094;8.778;2024-03-08T13:25:11;10.20;59.20
24678;DHT22;12800;53.094;8.778;2024-03-08T13:27:40;10.20;59.20
24678;DHT22;12800;53.094;8.778;2024-03-08T13:30:07;10.30;59.30
24678;DHT22;12800;53.094;8.778;2024-03-08T13:32:32;10.30;59.30
24678;DHT22;12800;53.094;8.778;2024-03-08T13:34:58;10.30;59.10
24678;DHT22;12800;53.094;8.778;2024-03-08T13:37:24;10.40;59.00
24678;DHT22;12800;53.094;8.778;2024-03-08T13:39:49;10.40;59.80
24678;DHT22;12800;53.094;8.778;2024-03-08T13:42:15;10.50;61.50
24678;DHT22;12800;53.094;8.778;2024-03-08T13:44:45;10.60;60.60
24678;DHT22;12800;53.094;8.778;2024-03-08T13:47:15;10.60;60.20
24678;DHT22;12800;53.094;8.778;2024-03-08T13:49:40;10.70;60.00
24678;DHT22;12800;53.094;8.778;2024-03-08T13:52:06;10.80;60.00
24678;DHT22;12800;53.094;8.778;2024-03-08T13:54:34;10.80;59.50
24678;DHT22;12800;53.094;8.778;2024-03-08T13:57:00;10.90;59.40
24678;DHT22;12800;53.094;8.778;2024-03-08T13:59:29;10.90;59.30
24678;DHT22;12800;53.094;8.778;2024-03-08T14:01:56;10.90;59.30
24678;DHT22;12800;53.094;8.778;2024-03-08T14:04:22;11.00;58.90
24678;DHT22;12800;53.094;8.778;2024-03-08T14:06:49;11.00;58.90
24678;DHT22;12800;53.094;8.778;2024-03-08T14:09:15;11.00;58.80
24678;DHT22;12800;53.094;8.778;2024-03-08T14:11:45;11.00;58.60
24678;DHT22;12800;53.094;8.778;2024-03-08T14:14:11;11.10;58.60
24678;DHT22;12800;53.094;8.778;2024-03-08T14:16:40;11.10;58.40
24678;DHT22;12800;53.094;8.778;2024-03-08T14:19:05;11.20;58.20
24678;DHT22;12800;53.094;8.778;2024-03-08T14:21:32;11.20;58.10
24678;DHT22;12800;53.094;8.778;2024-03-08T14:23:57;11.20;58.00
24678;DHT22;12800;53.094;8.778;2024-03-08T14:26:23;11.20;57.90
24678;DHT22;12800;53.094;8.778;2024-03-08T14:28:49;11.20;58.10
24678;DHT22;12800;53.094;8.778;2024-03-08T14:31:22;11.20;58.00
24678;DHT22;12800;53.094;8.778;2024-03-08T14:33:51;11.20;58.00
24678;DHT22;12800;53.094;8.778;2024-03-08T14:36:17;11.20;58.10
24678;DHT22;12800;53.094;8.778;2024-03-08T14:38:43;11.20;58.00
24678;DHT22;12800;53.094;8.778;2024-03-08T14:41:09;11.20;58.00
24678;DHT22;12800;53.094;8.778;2024-03-08T14:43:34;11.20;58.10
24678;DHT22;12800;53.094;8.778;2024-03-08T14:46:00;11.30;57.90
24678;DHT22;12800;53.094;8.778;2024-03-08T14:48:26;11.40;57.80
24678;DHT22;12800;53.094;8.778;2024-03-08T14:50:51;11.40;57.90
24678;DHT22;12800;53.094;8.778;2024-03-08T14:53:17;11.40;57.60
24678;DHT22;12800;53.094;8.778;2024-03-08T14:55:43;11.50;57.60
24678;DHT22;12800;53.094;8.778;2024-03-08T14:58:12;11.50;57.50
24678;DHT22;12800;53.094;8.778;2024-03-08T15:00:38;11.50;57.30
24678;DHT22;12800;53.094;8.778;2024-03-08T15:03:05;11.50;57.20
24678;DHT22;12800;53.094;8.778;2024-03-08T15:05:33;11.50;57.10
24678;DHT22;12800;53.094;8.778;2024-03-08T15:08:03;11.50;57.10
24678;DHT22;12800;53.094;8.778;2024-03-08T15:10:35;11.40;57.00
24678;DHT22;12800;53.094;8.778;2024-03-08T15:13:00;11.40;57.10
24678;DHT22;12800;53.094;8.778;2024-03-08T15:15:27;11.40;57.20
24678;DHT22;12800;53.094;8.778;2024-03-08T15:17:55;11.30;57.20
24678;DHT22;12800;53.094;8.778;2024-03-08T15:20:23;11.30;57.10
24678;DHT22;12800;53.094;8.778;2024-03-08T15:22:55;11.30;57.20
24678;DHT22;12800;53.094;8.778;2024-03-08T15:25:23;11.30;57.20
24678;DHT22;12800;53.094;8.778;2024-03-08T15:27:52;11.20;57.20
24678;DHT22;12800;53.094;8.778;2024-03-08T15:30:21;11.20;57.20
24678;DHT22;12800;53.094;8.778;2024-03-08T15:32:52;11.10;57.00
24678;DHT22;12800;53.094;8.778;2024-03-08T15:35:25;11.10;57.20
24678;DHT22;12800;53.094;8.778;2024-03-08T15:37:54;11.10;57.20
24678;DHT22;12800;53.094;8.778;2024-03-08T15:40:22;11.00;57.30
24678;DHT22;12800;53.094;8.778;2024-03-08T15:45:17;11.00;57.40
24678;DHT22;12800;53.094;8.778;2024-03-08T15:47:43;11.00;57.40
24678;DHT22;12800;53.094;8.778;2024-03-08T15:50:10;10.90;57.50